Capitol Logistics 592




RJAA
Tokyo-Narita International Airport
Tokyo, JP
RKSI
Incheon International Airport
Seoul, KR

Activity Log

Date Flight Route Aircraft Duration
03/31/2022 CPX592 TETRA8 ENPAR Y16 SAPRA G585 GUKDO MD11 2h 24m
02/26/2022 CPX592 TETRA8 ENPAR Y16 SAPRA G585 GUKDO B744 2h 25m
02/10/2022 CPX592 TETRA8 ENPAR Y16 SAPRA G585 GUKDO B763 2h 39m
08/31/2020 CPX512 SOUKA Y16 SAPRA Y685 SEL SEL1T B763 2h 14m
02/09/2019 CPX712 CHINO Y16 SAPRA G585 CUN B763 2h 25m

Route Details

Aircraft Information
Group: Trans-Pacific Ops
Types: B744,B763,MD11
Route Data
Demand: L
Distance: 679nm
Duration: 2h 06m
Recm'd Route: TETRA8 ENPAR Y16 SAPRA G585 GUKDO
Origin Wx: RJAA 270530Z 14009KT 100V180 9999 FEW010 BKN015 BKN/// 23/20 Q0997 NOSIG
Dest. Wx: RKSI 270530Z 24013KT CAVOK 21/11 Q1001 NOSIG
Notes:

Financial History
Total Freight: 439,806lbs
Average Load: 87,961lbs/flt
Fuel Used: 162,695lbs
Avg. Fuel Used: 32,539lbs/flt
Fuel Expense: $87,610
Avg. Fuel Expense: $17,522
Avg. Fuel Cost: $0.57/lbs
Total Gross Income: $766,870
Pilot Pay: $1,105
Total Expenses: $104,066
Total Revenue: $572,607
Average Revenue: $153,373.92